Time;durP1;ratioP1;P1;durP2;ratioP2;P2;SDS_P1;SDS_P2;PMS_P1;PMS_P2;Temp;Humidity;BMP_temperature;BMP_pressure;BME280_temperature;BME280_humidity;BME280_pressure;Samples;Min_cycle;Max_cycle;Signal;HPM_P1;HPM_P2
2023/03/08 00:00:40;;;;;;;6.10;2.15;;;-0.70;99.90;;;;;;5064277;28;20460;-61
2023/03/08 00:03:06;;;;;;;6.03;2.20;;;-0.70;99.90;;;;;;5064125;28;20063;-61
2023/03/08 00:05:32;;;;;;;9.70;2.58;;;-0.80;99.90;;;;;;5064041;28;20079;-61
2023/03/08 00:07:57;;;;;;;7.63;2.10;;;-0.80;99.90;;;;;;5065334;28;20066;-62
2023/03/08 00:10:23;;;;;;;5.40;2.30;;;-0.80;99.90;;;;;;5062598;28;20635;-61
2023/03/08 00:12:48;;;;;;;8.65;2.05;;;-0.80;99.90;;;;;;5063094;28;20102;-61
2023/03/08 00:15:14;;;;;;;6.57;2.45;;;-0.80;99.90;;;;;;5064744;28;20127;-61
2023/03/08 00:17:40;;;;;;;6.93;2.50;;;-0.80;99.90;;;;;;5065190;28;20036;-61
2023/03/08 00:20:08;;;;;;;8.40;2.20;;;-0.90;99.90;;;;;;5064780;28;20131;-61
2023/03/08 00:22:39;;;;;;;5.97;2.30;;;-0.90;99.90;;;;;;5046628;28;20080;-60
2023/03/08 00:25:05;;;;;;;9.15;2.75;;;-0.90;99.90;;;;;;5063006;28;20044;-61
2023/03/08 00:27:31;;;;;;;9.95;2.42;;;-0.90;99.90;;;;;;5082639;28;20031;-61
2023/03/08 00:29:57;;;;;;;6.38;2.45;;;-0.90;99.90;;;;;;5069557;28;20098;-61
2023/03/08 00:32:25;;;;;;;6.97;2.38;;;-0.90;99.90;;;;;;5064510;28;20083;-61
2023/03/08 00:34:51;;;;;;;7.65;2.30;;;-0.90;99.90;;;;;;5063348;28;20040;-61
2023/03/08 00:37:17;;;;;;;9.10;2.70;;;-0.90;99.90;;;;;;5063816;28;20075;-60
2023/03/08 00:39:42;;;;;;;6.93;3.00;;;-0.90;99.90;;;;;;5071948;28;20460;-61
2023/03/08 00:42:08;;;;;;;11.00;2.80;;;-0.90;99.90;;;;;;5067433;28;20047;-61
2023/03/08 00:44:33;;;;;;;6.90;2.40;;;-0.90;99.90;;;;;;5046439;28;20056;-61
2023/03/08 00:46:59;;;;;;;6.88;2.45;;;-0.90;99.90;;;;;;5064869;28;20044;-62
2023/03/08 00:49:25;;;;;;;7.40;2.88;;;-0.90;99.90;;;;;;5063068;28;20070;-61
2023/03/08 00:51:51;;;;;;;7.97;2.53;;;-0.90;99.90;;;;;;5046116;28;20063;-61
2023/03/08 00:54:16;;;;;;;10.38;2.90;;;-0.90;99.90;;;;;;5061063;28;20062;-61
2023/03/08 00:56:42;;;;;;;5.22;2.28;;;-0.90;99.90;;;;;;5063429;28;20056;-60
2023/03/08 00:59:07;;;;;;;9.35;2.85;;;-0.90;99.90;;;;;;5071260;28;20071;-61
2023/03/08 01:01:34;;;;;;;6.93;2.90;;;-0.90;99.90;;;;;;5078650;28;20056;-61
2023/03/08 01:04:00;;;;;;;7.57;2.45;;;-0.90;99.90;;;;;;5063789;28;20132;-62
2023/03/08 01:06:26;;;;;;;6.88;2.67;;;-0.90;99.90;;;;;;5062258;28;20044;-61
2023/03/08 01:08:51;;;;;;;7.25;2.92;;;-0.90;99.90;;;;;;5067346;28;20044;-62
2023/03/08 01:11:20;;;;;;;8.68;2.55;;;-0.90;99.90;;;;;;5074812;28;20723;-62
2023/03/08 01:13:46;;;;;;;8.45;2.45;;;-0.90;99.90;;;;;;5082540;28;20781;-62
2023/03/08 01:16:20;;;;;;;8.73;2.88;;;-0.90;99.90;;;;;;5081458;28;20119;-62
2023/03/08 01:18:46;;;;;;;9.05;2.80;;;-0.90;99.90;;;;;;5082448;28;20481;-61
2023/03/08 01:21:11;;;;;;;6.68;2.22;;;-0.90;99.90;;;;;;5083000;28;20117;-62
2023/03/08 01:23:37;;;;;;;9.52;2.67;;;-0.90;99.90;;;;;;5081767;28;20190;-62
2023/03/08 01:26:06;;;;;;;8.60;2.58;;;-0.90;99.90;;;;;;5080947;28;20052;-61
2023/03/08 01:28:32;;;;;;;8.35;2.28;;;-0.90;99.90;;;;;;5061996;28;20624;-62
2023/03/08 01:31:06;;;;;;;7.28;2.40;;;-1.00;99.90;;;;;;5063874;28;20040;-62
2023/03/08 01:33:32;;;;;;;;;;;-0.90;99.90;;;;;;5063906;28;20042;-62
2023/03/08 01:35:58;;;;;;;7.72;2.75;;;-0.90;99.90;;;;;;5063613;28;20216;-63
2023/03/08 01:38:24;;;;;;;6.80;2.20;;;-0.90;99.90;;;;;;5063818;28;20839;-60
2023/03/08 01:40:56;;;;;;;7.25;2.47;;;-0.90;99.90;;;;;;5075302;28;20469;-62
2023/03/08 01:43:27;;;;;;;8.05;2.17;;;-1.00;99.90;;;;;;5061766;28;20436;-61
2023/03/08 01:46:17;;;;;;;6.47;2.10;;;-1.00;99.90;;;;;;5062575;28;20131;-62
2023/03/08 01:48:55;;;;;;;9.43;2.10;;;-1.00;99.90;;;;;;5062169;28;20033;-62
2023/03/08 01:51:27;;;;;;;9.15;2.25;;;-1.00;99.90;;;;;;5063820;28;20179;-62
2023/03/08 01:53:53;;;;;;;7.68;2.22;;;-1.00;99.90;;;;;;5062773;28;20123;-62
2023/03/08 01:56:20;;;;;;;9.05;2.20;;;-1.00;99.90;;;;;;5061397;28;20048;-62
2023/03/08 01:58:49;;;;;;;5.85;2.20;;;-1.00;99.90;;;;;;5063198;28;20033;-62
2023/03/08 02:01:16;;;;;;;7.97;2.20;;;-1.00;99.90;;;;;;5063583;28;20079;-61
2023/03/08 02:03:43;;;;;;;11.38;2.88;;;-1.00;99.90;;;;;;5061432;28;20053;-61
2023/03/08 02:06:08;;;;;;;9.32;2.22;;;-1.10;99.90;;;;;;5061578;28;20056;-62
2023/03/08 02:08:34;;;;;;;7.25;2.33;;;-1.10;99.90;;;;;;5064342;28;20059;-62
2023/03/08 02:11:00;;;;;;;9.10;2.40;;;-1.10;99.90;;;;;;5075644;28;20415;-61
2023/03/08 02:13:27;;;;;;;7.00;2.33;;;-1.10;99.90;;;;;;5062571;28;20040;-62
2023/03/08 02:15:55;;;;;;;10.38;2.17;;;-1.10;99.90;;;;;;5063624;28;20047;-61
2023/03/08 02:18:21;;;;;;;8.02;1.88;;;-1.10;99.90;;;;;;5062544;28;20052;-62
2023/03/08 02:20:47;;;;;;;5.43;1.92;;;-1.10;99.90;;;;;;5062817;28;20105;-62
2023/03/08 02:23:19;;;;;;;7.18;2.05;;;-1.10;99.90;;;;;;5061618;28;20048;-62
2023/03/08 02:25:53;;;;;;;7.70;1.90;;;-1.10;99.90;;;;;;5061181;28;20101;-62
2023/03/08 02:28:21;;;;;;;7.93;2.55;;;-1.10;99.90;;;;;;5061533;28;20055;-62
2023/03/08 02:30:48;;;;;;;7.65;2.10;;;-1.10;99.90;;;;;;5063263;28;20454;-62
2023/03/08 02:33:13;;;;;;;9.00;1.80;;;-1.20;99.90;;;;;;5061813;28;20044;-62
2023/03/08 02:35:41;;;;;;;7.22;2.15;;;-1.10;99.90;;;;;;5078054;28;20037;-62
2023/03/08 02:38:08;;;;;;;9.27;2.03;;;-1.10;99.90;;;;;;5061772;28;20373;-62
2023/03/08 02:40:35;;;;;;;7.82;2.17;;;-1.10;99.90;;;;;;5075726;28;20040;-62
2023/03/08 02:43:00;;;;;;;9.90;2.13;;;-1.10;99.90;;;;;;5063582;28;20451;-62
2023/03/08 02:45:26;;;;;;;5.10;2.03;;;-1.10;99.90;;;;;;5081297;28;20043;-61
2023/03/08 02:47:51;;;;;;;12.75;2.25;;;-1.10;99.90;;;;;;5066250;28;20072;-62
2023/03/08 02:50:17;;;;;;;6.78;2.35;;;-1.10;99.90;;;;;;5063042;28;20037;-62
2023/03/08 02:52:43;;;;;;;7.72;2.60;;;-1.10;99.90;;;;;;5061677;28;20041;-62
2023/03/08 02:55:09;;;;;;;10.77;2.30;;;-1.10;99.90;;;;;;5061782;28;20113;-62
2023/03/08 02:57:34;;;;;;;10.30;2.78;;;-1.10;99.90;;;;;;5062055;28;20647;-61
2023/03/08 03:00:00;;;;;;;6.88;2.47;;;-1.10;99.90;;;;;;5061721;28;20134;-61
2023/03/08 03:02:25;;;;;;;8.05;2.80;;;-1.20;99.90;;;;;;5077647;28;20658;-61
2023/03/08 03:04:51;;;;;;;7.60;2.63;;;-1.20;99.90;;;;;;5086457;28;20078;-62
2023/03/08 03:07:17;;;;;;;10.63;3.67;;;-1.20;99.90;;;;;;5085394;28;20040;-63
2023/03/08 03:09:42;;;;;;;7.32;2.22;;;-1.20;99.90;;;;;;5072010;28;20037;-62
2023/03/08 03:12:08;;;;;;;9.32;2.38;;;-1.20;99.90;;;;;;5080273;28;20411;-62
2023/03/08 03:14:33;;;;;;;10.73;2.90;;;-1.20;99.90;;;;;;5072544;28;20043;-62
2023/03/08 03:16:59;;;;;;;7.63;2.38;;;-1.20;99.90;;;;;;5073877;28;20112;-62
2023/03/08 03:19:25;;;;;;;9.18;2.35;;;-1.20;99.90;;;;;;5085508;28;20040;-62
2023/03/08 03:21:50;;;;;;;8.57;2.72;;;-1.20;99.90;;;;;;5086312;28;20040;-62
2023/03/08 03:24:16;;;;;;;8.48;2.50;;;-1.30;99.90;;;;;;5067885;28;20036;-62
2023/03/08 03:26:41;;;;;;;13.25;2.78;;;-1.30;99.90;;;;;;5063993;28;20145;-61
2023/03/08 03:29:07;;;;;;;6.70;2.38;;;-1.30;99.90;;;;;;5064173;28;20669;-62
2023/03/08 03:31:33;;;;;;;8.68;2.35;;;-1.30;99.90;;;;;;5064529;28;20029;-62
2023/03/08 03:33:59;;;;;;;5.68;2.10;;;-1.30;99.90;;;;;;5065187;28;20051;-62
2023/03/08 03:36:24;;;;;;;8.02;2.58;;;-1.30;99.90;;;;;;5064552;28;20041;-62
2023/03/08 03:38:51;;;;;;;8.07;2.40;;;-1.30;99.90;;;;;;5065988;28;20147;-62
2023/03/08 03:41:21;;;;;;;12.10;2.63;;;-1.30;99.90;;;;;;5075689;28;20040;-62
2023/03/08 03:43:48;;;;;;;8.73;2.63;;;-1.30;99.90;;;;;;5078691;28;20115;-62
2023/03/08 03:46:16;;;;;;;9.18;2.95;;;-1.30;99.90;;;;;;5064225;28;20048;-62
2023/03/08 03:48:42;;;;;;;10.55;2.97;;;-1.30;99.90;;;;;;5064097;28;20384;-62
2023/03/08 03:51:13;;;;;;;8.70;2.45;;;-1.30;99.90;;;;;;5064003;28;20062;-62
2023/03/08 03:53:40;;;;;;;12.93;2.50;;;-1.30;99.90;;;;;;5064425;28;20120;-62
2023/03/08 03:56:19;;;;;;;13.32;2.53;;;-1.40;99.90;;;;;;5063266;28;20107;-62
2023/03/08 03:58:45;;;;;;;10.45;2.97;;;-1.40;99.90;;;;;;5023316;28;20103;-62
2023/03/08 04:01:16;;;;;;;7.07;2.55;;;-1.40;99.90;;;;;;5025338;28;20566;-62
2023/03/08 04:03:43;;;;;;;8.55;2.55;;;-1.40;99.90;;;;;;5025481;28;20524;-62
2023/03/08 04:06:14;;;;;;;10.02;3.13;;;-1.40;99.90;;;;;;5023590;28;20073;-61
2023/03/08 04:08:41;;;;;;;8.35;2.63;;;-1.50;99.90;;;;;;5024109;28;20037;-62
2023/03/08 04:11:20;;;;;;;8.75;2.55;;;-1.50;99.90;;;;;;5022399;28;20045;-62
2023/03/08 04:13:46;;;;;;;6.68;2.60;;;-1.50;99.90;;;;;;5023107;28;20049;-62
2023/03/08 04:16:20;;;;;;;11.05;3.30;;;-1.60;99.90;;;;;;5024958;28;20607;-61
2023/03/08 04:18:46;;;;;;;;;;;-1.60;99.90;;;;;;5007557;28;20122;-62
2023/03/08 04:21:12;;;;;;;7.05;2.42;;;-1.60;99.90;;;;;;5024187;28;20646;-63
2023/03/08 04:23:37;;;;;;;7.60;2.40;;;-1.60;99.90;;;;;;5022458;28;20048;-62
2023/03/08 04:26:04;;;;;;;7.82;2.80;;;-1.60;99.90;;;;;;5022838;28;20514;-62
2023/03/08 04:28:30;;;;;;;8.88;2.50;;;-1.60;99.90;;;;;;5024002;28;20056;-62
2023/03/08 04:30:56;;;;;;;8.75;3.05;;;-1.60;99.90;;;;;;5045206;28;20767;-62
2023/03/08 04:33:22;;;;;;;6.00;2.30;;;-1.60;99.90;;;;;;5023768;28;20044;-62
2023/03/08 04:35:48;;;;;;;5.80;2.50;;;-1.60;99.90;;;;;;5056254;28;20044;-62
2023/03/08 04:38:14;;;;;;;8.82;2.85;;;-1.60;99.90;;;;;;5056370;28;20045;-62
2023/03/08 04:41:01;;;;;;;11.55;2.88;;;-1.70;99.90;;;;;;5038608;28;20484;-62
2023/03/08 04:43:28;;;;;;;7.15;2.63;;;-1.60;99.90;;;;;;5042171;28;20087;-62
2023/03/08 04:45:53;;;;;;;10.80;2.45;;;-1.70;99.90;;;;;;5024592;28;20036;-62
2023/03/08 04:48:19;;;;;;;11.85;2.80;;;-1.70;99.90;;;;;;5024632;28;20034;-62
2023/03/08 04:50:54;;;;;;;11.60;2.85;;;-1.70;99.90;;;;;;5023363;28;20048;-62
2023/03/08 04:53:21;;;;;;;8.65;2.70;;;-1.70;99.90;;;;;;5023443;28;20555;-62
2023/03/08 04:55:47;;;;;;;6.25;2.58;;;-1.80;99.90;;;;;;5021311;28;20029;-62
2023/03/08 04:58:13;;;;;;;9.48;2.65;;;-1.80;99.90;;;;;;5055881;28;20177;-62
2023/03/08 05:00:38;;;;;;;11.63;2.90;;;-1.80;99.90;;;;;;5083206;28;20040;-62
2023/03/08 05:03:05;;;;;;;8.20;2.67;;;-1.80;99.90;;;;;;5067042;28;20586;-62
2023/03/08 05:05:30;;;;;;;10.35;3.40;;;-1.80;99.90;;;;;;5062536;28;20074;-61
2023/03/08 05:07:58;;;;;;;11.15;2.65;;;-1.90;99.90;;;;;;5063839;28;20045;-62
2023/03/08 05:10:24;;;;;;;8.68;3.22;;;-1.80;99.90;;;;;;5064778;28;20049;-61
2023/03/08 05:12:49;;;;;;;8.63;3.00;;;-1.80;99.90;;;;;;5061945;28;20041;-62
2023/03/08 05:15:15;;;;;;;8.98;3.10;;;-1.80;99.90;;;;;;5062381;28;20101;-62
2023/03/08 05:17:40;;;;;;;8.63;3.20;;;-1.90;99.90;;;;;;5063875;28;20025;-62
2023/03/08 05:20:07;;;;;;;15.43;3.50;;;-1.90;99.90;;;;;;5061883;28;20037;-61
2023/03/08 05:22:32;;;;;;;8.75;3.20;;;-1.90;99.90;;;;;;5062006;28;20097;-61
2023/03/08 05:24:58;;;;;;;9.65;3.38;;;-2.00;99.90;;;;;;5060702;28;20048;-62
2023/03/08 05:27:23;;;;;;;11.70;4.95;;;-2.00;99.90;;;;;;5062509;28;20045;-62
2023/03/08 05:29:50;;;;;;;11.02;5.28;;;-2.00;99.90;;;;;;5074058;28;20036;-62
2023/03/08 05:32:16;;;;;;;15.50;6.30;;;-2.00;99.90;;;;;;5073385;28;20043;-62
2023/03/08 05:34:42;;;;;;;15.45;5.85;;;-2.00;99.90;;;;;;5062023;28;20041;-62
2023/03/08 05:37:07;;;;;;;13.27;6.07;;;-2.00;99.90;;;;;;5078934;28;20047;-62
2023/03/08 05:39:33;;;;;;;14.02;6.57;;;-2.00;99.90;;;;;;5085926;28;20046;-61
2023/03/08 05:41:58;;;;;;;13.25;6.85;;;-2.00;99.90;;;;;;5069471;28;20054;-61
2023/03/08 05:44:24;;;;;;;18.33;7.68;;;-2.10;99.90;;;;;;5062879;28;20199;-62
2023/03/08 05:46:50;;;;;;;19.38;9.43;;;-2.10;99.90;;;;;;5079360;28;20043;-62
2023/03/08 05:49:15;;;;;;;22.83;10.48;;;-2.10;99.90;;;;;;5063012;28;20047;-62
2023/03/08 05:51:41;;;;;;;21.83;11.57;;;-2.10;99.90;;;;;;5063624;28;20514;-61
2023/03/08 05:54:07;;;;;;;20.25;11.35;;;-2.00;99.90;;;;;;5060478;28;20131;-61
2023/03/08 05:56:32;;;;;;;24.17;12.00;;;-2.10;99.90;;;;;;5062466;28;20048;-62
2023/03/08 05:58:58;;;;;;;23.10;12.18;;;-2.10;99.90;;;;;;5061788;28;20049;-61
2023/03/08 06:01:25;;;;;;;26.50;12.38;;;-2.10;99.90;;;;;;5065256;28;20044;-61
2023/03/08 06:03:53;;;;;;;31.15;13.77;;;-2.10;99.90;;;;;;5078203;28;20235;-62
2023/03/08 06:06:20;;;;;;;26.08;12.85;;;-2.10;99.90;;;;;;5082370;28;20040;-61
2023/03/08 06:08:46;;;;;;;22.50;12.80;;;-2.10;99.90;;;;;;5081992;28;20050;-61
2023/03/08 06:11:12;;;;;;;22.85;12.77;;;-2.10;99.90;;;;;;5076177;28;20087;-62
2023/03/08 06:13:38;;;;;;;26.05;13.20;;;-2.10;99.90;;;;;;5062888;28;20108;-62
2023/03/08 06:16:04;;;;;;;28.73;12.45;;;-2.10;99.90;;;;;;5061562;28;20048;-63
2023/03/08 06:18:30;;;;;;;22.95;12.75;;;-2.10;99.90;;;;;;5063129;28;20047;-62
2023/03/08 06:21:01;;;;;;;31.63;15.60;;;-2.00;99.90;;;;;;5076922;28;20052;-62
2023/03/08 06:23:29;;;;;;;27.52;12.52;;;-2.00;99.90;;;;;;5061757;28;20045;-61
2023/03/08 06:25:55;;;;;;;24.15;13.48;;;-2.00;99.90;;;;;;5072239;28;20119;-62
2023/03/08 06:28:22;;;;;;;26.27;13.40;;;-2.00;99.90;;;;;;5077471;28;20117;-62
2023/03/08 06:30:48;;;;;;;23.70;12.63;;;-2.00;99.90;;;;;;5082824;28;20127;-62
2023/03/08 06:33:18;;;;;;;24.38;13.00;;;-2.00;99.90;;;;;;5064155;28;20609;-61
2023/03/08 06:35:54;;;;;;;22.30;13.35;;;-2.00;99.90;;;;;;5063007;28;20044;-62
2023/03/08 06:38:19;;;;;;;29.95;14.07;;;-2.00;99.90;;;;;;5065613;28;20044;-61
2023/03/08 06:40:45;;;;;;;24.70;14.20;;;-2.00;99.90;;;;;;5080654;28;20032;-62
2023/03/08 06:43:10;;;;;;;26.48;13.77;;;-2.00;99.90;;;;;;5067260;28;20036;-62
2023/03/08 06:45:39;;;;;;;27.20;14.85;;;-1.90;99.90;;;;;;5067375;28;20046;-62
2023/03/08 06:48:05;;;;;;;25.27;14.98;;;-1.90;99.90;;;;;;5065640;28;20800;-62
2023/03/08 06:50:31;;;;;;;25.27;14.85;;;-1.80;99.90;;;;;;5066850;28;20075;-61
2023/03/08 06:52:57;;;;;;;26.70;15.02;;;-1.70;99.90;;;;;;5067282;28;20044;-62
2023/03/08 06:55:22;;;;;;;28.08;15.70;;;-1.70;99.90;;;;;;5063907;28;20036;-62
2023/03/08 06:57:48;;;;;;;27.70;14.95;;;-1.60;99.90;;;;;;5065535;28;20128;-61
2023/03/08 07:00:14;;;;;;;24.50;15.43;;;-1.50;99.90;;;;;;5080093;28;20130;-61
2023/03/08 07:02:40;;;;;;;26.73;14.68;;;-1.50;99.90;;;;;;5071452;28;20127;-62
2023/03/08 07:05:06;;;;;;;24.15;14.20;;;-1.40;99.90;;;;;;5064319;28;20506;-62
2023/03/08 07:07:34;;;;;;;18.38;12.65;;;-1.30;99.90;;;;;;5071576;28;20135;-62
2023/03/08 07:10:00;;;;;;;27.00;12.93;;;-1.20;99.90;;;;;;5080697;28;20123;-62
2023/03/08 07:12:25;;;;;;;20.30;13.48;;;-1.20;99.90;;;;;;5067207;28;20563;-62
2023/03/08 07:14:52;;;;;;;21.70;13.55;;;-1.10;99.90;;;;;;5065406;28;20622;-62
2023/03/08 07:17:18;;;;;;;25.52;14.07;;;-1.10;99.90;;;;;;5066213;28;20033;-62
2023/03/08 07:19:44;;;;;;;28.90;13.63;;;-1.00;99.90;;;;;;5065823;28;20048;-62
2023/03/08 07:22:11;;;;;;;22.63;12.95;;;-0.90;99.90;;;;;;5085002;28;20565;-61
2023/03/08 07:24:37;;;;;;;21.05;13.95;;;-0.90;99.90;;;;;;5083582;28;20060;-61
2023/03/08 07:27:04;;;;;;;23.80;14.13;;;-0.80;99.90;;;;;;5069612;28;20044;-61
2023/03/08 07:29:29;;;;;;;22.33;13.95;;;-0.70;99.90;;;;;;5073258;28;20105;-62
2023/03/08 07:31:55;;;;;;;22.17;13.07;;;-0.60;99.90;;;;;;5079126;28;20041;-61
2023/03/08 07:34:20;;;;;;;20.35;12.15;;;-0.50;99.90;;;;;;5081066;28;20032;-62
2023/03/08 07:36:46;;;;;;;20.38;11.52;;;-0.40;99.90;;;;;;5065421;28;20068;-62
2023/03/08 07:39:11;;;;;;;19.15;11.70;;;-0.30;99.90;;;;;;5063802;28;20048;-61
2023/03/08 07:41:37;;;;;;;22.10;12.38;;;-0.30;99.90;;;;;;5063527;28;20048;-62
2023/03/08 07:44:03;;;;;;;17.67;11.43;;;-0.20;99.90;;;;;;5064969;28;20562;-61
2023/03/08 07:46:29;;;;;;;19.80;10.90;;;-0.10;99.90;;;;;;5064083;28;20923;-62
2023/03/08 07:48:55;;;;;;;22.48;11.73;;;0.00;99.90;;;;;;5047098;28;20074;-62
2023/03/08 07:51:20;;;;;;;21.10;11.65;;;0.00;99.90;;;;;;5064736;28;20040;-61
2023/03/08 07:53:46;;;;;;;18.45;11.00;;;0.10;99.90;;;;;;5063021;28;20040;-62
2023/03/08 07:56:11;;;;;;;18.35;10.77;;;0.10;99.90;;;;;;5065693;28;20044;-62
2023/03/08 07:58:38;;;;;;;20.80;10.73;;;0.20;99.90;;;;;;5064770;28;20041;-61
2023/03/08 08:01:12;;;;;;;16.90;11.02;;;0.30;99.90;;;;;;5084435;28;20048;-61
2023/03/08 08:03:38;;;;;;;14.27;10.45;;;0.40;99.90;;;;;;5085278;28;20094;-61
2023/03/08 08:06:05;;;;;;;16.55;10.88;;;0.50;99.90;;;;;;5078420;28;20824;-62
2023/03/08 08:08:31;;;;;;;16.67;10.65;;;0.60;99.90;;;;;;5050374;28;20044;-62
2023/03/08 08:10:56;;;;;;;20.85;9.40;;;0.60;99.90;;;;;;5069896;28;20710;-62
2023/03/08 08:13:22;;;;;;;18.48;9.70;;;0.70;99.90;;;;;;5062915;28;20143;-62
2023/03/08 08:16:00;;;;;;;16.83;9.45;;;0.70;99.90;;;;;;5064395;28;20047;-62
2023/03/08 08:18:26;;;;;;;15.77;8.95;;;0.80;99.90;;;;;;5064831;28;20119;-61
2023/03/08 08:21:09;;;;;;;14.75;9.40;;;0.80;99.90;;;;;;5064973;28;20087;-62
2023/03/08 08:23:35;;;;;;;20.42;9.45;;;0.90;99.90;;;;;;5061868;28;20119;-61
2023/03/08 08:26:05;;;;;;;17.25;8.93;;;1.00;99.90;;;;;;5063748;28;20788;-61
2023/03/08 08:28:30;;;;;;;16.77;9.13;;;1.10;99.90;;;;;;5064711;28;20047;-62
2023/03/08 08:31:03;;;;;;;14.30;8.88;;;1.20;99.90;;;;;;5063262;28;20028;-61
2023/03/08 08:33:29;;;;;;;14.00;8.40;;;1.30;99.90;;;;;;5062730;28;20047;-62
2023/03/08 08:35:55;;;;;;;12.77;7.47;;;1.40;99.90;;;;;;5064773;28;20037;-62
2023/03/08 08:38:21;;;;;;;15.82;8.38;;;1.50;99.90;;;;;;5064860;28;20090;-62
2023/03/08 08:40:46;;;;;;;12.52;7.93;;;1.50;99.90;;;;;;5078530;28;20043;-62
2023/03/08 08:43:12;;;;;;;13.38;7.88;;;1.50;99.90;;;;;;5083806;28;20476;-61
2023/03/08 08:45:43;;;;;;;14.13;7.68;;;1.60;99.90;;;;;;5081777;28;20117;-62
2023/03/08 08:48:08;;;;;;;16.83;8.23;;;1.70;99.90;;;;;;5068190;28;20111;-61
2023/03/08 08:50:36;;;;;;;12.00;7.70;;;1.70;99.90;;;;;;5064220;28;20635;-61
2023/03/08 08:53:01;;;;;;;13.30;8.93;;;1.70;99.90;;;;;;5062930;28;20514;-61
2023/03/08 08:55:27;;;;;;;15.27;9.05;;;1.70;99.90;;;;;;5061282;28;20041;-62
2023/03/08 08:57:52;;;;;;;16.00;8.50;;;1.80;99.90;;;;;;5082912;28;20047;-62
2023/03/08 09:00:18;;;;;;;13.10;7.90;;;1.80;99.90;;;;;;5067085;28;20577;-62
2023/03/08 09:02:44;;;;;;;12.75;7.40;;;1.90;99.90;;;;;;5076599;28;20043;-62
2023/03/08 09:05:09;;;;;;;14.73;8.05;;;2.00;99.90;;;;;;5080442;28;20089;-62
2023/03/08 09:07:35;;;;;;;17.33;7.85;;;2.10;99.90;;;;;;5075090;28;20044;-62
2023/03/08 09:10:01;;;;;;;14.15;7.50;;;2.20;99.90;;;;;;5066381;28;20055;-60
2023/03/08 09:12:28;;;;;;;12.63;7.40;;;2.30;99.90;;;;;;5061706;28;20119;-62
2023/03/08 09:14:53;;;;;;;11.93;6.55;;;2.40;99.90;;;;;;5073450;28;20474;-62
2023/03/08 09:17:19;;;;;;;12.70;7.70;;;2.40;99.90;;;;;;5073003;28;20036;-62
2023/03/08 09:19:45;;;;;;;12.90;6.95;;;2.50;99.90;;;;;;5062525;28;20071;-62
2023/03/08 09:22:10;;;;;;;14.45;7.28;;;2.60;99.90;;;;;;5063729;28;20044;-62
2023/03/08 09:24:36;;;;;;;10.00;6.35;;;2.60;99.90;;;;;;5062839;28;20033;-62
2023/03/08 09:27:04;;;;;;;11.02;6.57;;;2.60;99.90;;;;;;5058140;28;20040;-62
2023/03/08 09:29:30;;;;;;;14.15;8.00;;;2.60;99.90;;;;;;5074066;28;20090;-62
2023/03/08 09:31:56;;;;;;;11.25;6.82;;;2.60;99.90;;;;;;5045892;28;20714;-62
2023/03/08 09:34:21;;;;;;;11.55;7.13;;;2.70;99.90;;;;;;5061918;28;20071;-61
2023/03/08 09:36:47;;;;;;;11.73;6.82;;;2.80;99.90;;;;;;5062638;28;20072;-61
2023/03/08 09:39:12;;;;;;;12.68;7.28;;;2.80;99.90;;;;;;5067114;28;20036;-62
2023/03/08 09:41:57;;;;;;;12.85;6.85;;;2.80;99.90;;;;;;5065600;28;20048;-61
2023/03/08 09:44:42;;;;;;;;;;;2.80;99.90;;;;;;5062771;28;20653;-62
2023/03/08 09:47:32;;;;;;;11.18;6.78;;;2.90;99.90;;;;;;5064105;28;19963;-62
2023/03/08 09:50:14;;;;;;;10.65;6.15;;;3.00;99.90;;;;;;5062337;28;20109;-62
2023/03/08 09:53:17;;;;;;;11.43;7.10;;;3.10;99.90;;;;;;5062573;28;20045;-62
2023/03/08 09:55:47;;;;;;;12.90;6.55;;;3.30;99.90;;;;;;5063203;28;20133;-62
2023/03/08 09:58:27;;;;;;;10.60;5.38;;;3.30;99.90;;;;;;5063584;28;20056;-62
2023/03/08 10:00:58;;;;;;;13.13;7.18;;;3.40;99.90;;;;;;5062672;28;20416;-62
2023/03/08 10:03:30;;;;;;;10.70;6.55;;;3.40;99.90;;;;;;5078924;28;20406;-62
2023/03/08 10:06:30;;;;;;;9.85;4.88;;;3.50;99.90;;;;;;5082514;28;20039;-62
2023/03/08 10:09:05;;;;;;;10.40;6.10;;;3.60;99.90;;;;;;5015730;28;20048;-62
2023/03/08 10:11:59;;;;;;;13.48;7.38;;;3.70;99.90;;;;;;5065864;28;20057;-62
2023/03/08 10:14:35;;;;;;;11.90;6.40;;;3.60;99.90;;;;;;5072444;28;20036;-62
2023/03/08 10:17:09;;;;;;;10.68;5.85;;;3.50;99.90;;;;;;5079618;28;20034;-63
2023/03/08 10:19:45;;;;;;;8.60;5.40;;;3.60;99.90;;;;;;5067345;28;20094;-62
2023/03/08 10:22:33;;;;;;;12.00;5.53;;;3.70;99.90;;;;;;5066476;28;20045;-62
2023/03/08 10:25:14;;;;;;;7.95;4.95;;;3.80;99.90;;;;;;5066270;28;20040;-62
2023/03/08 10:27:40;;;;;;;8.32;4.75;;;3.80;99.90;;;;;;5083147;28;20062;-62
2023/03/08 10:30:14;;;;;;;8.25;3.97;;;3.90;99.90;;;;;;5072076;28;20075;-62
2023/03/08 10:32:43;;;;;;;9.18;4.15;;;4.00;99.90;;;;;;5078575;28;20622;-63
2023/03/08 10:35:08;;;;;;;7.68;2.97;;;4.10;99.90;;;;;;5085386;28;20406;-62
2023/03/08 10:37:34;;;;;;;7.47;3.30;;;4.20;99.90;;;;;;5086993;28;20024;-62
2023/03/08 10:40:04;;;;;;;8.50;3.40;;;4.50;99.90;;;;;;5083161;28;20840;-62
2023/03/08 10:42:31;;;;;;;8.95;3.58;;;4.80;99.90;;;;;;5067372;28;20064;-62
2023/03/08 10:45:09;;;;;;;7.18;2.85;;;5.10;99.90;;;;;;5064963;28;20399;-62
2023/03/08 10:47:35;;;;;;;6.97;2.70;;;5.40;99.90;;;;;;5066425;28;20529;-62
2023/03/08 10:50:09;;;;;;;6.80;2.75;;;5.50;99.90;;;;;;5065431;28;20084;-62
2023/03/08 10:52:35;;;;;;;6.18;2.45;;;5.50;99.90;;;;;;5083614;28;20120;-62
2023/03/08 10:55:16;;;;;;;8.77;3.15;;;5.30;99.90;;;;;;5101633;28;20329;-62
2023/03/08 10:57:58;;;;;;;6.55;2.90;;;5.20;99.90;;;;;;5066859;28;20059;-62
2023/03/08 11:00:39;;;;;;;7.38;3.53;;;5.30;99.90;;;;;;5081441;28;20036;-62
2023/03/08 11:03:17;;;;;;;9.27;4.57;;;5.30;99.90;;;;;;5070276;28;20041;-62
2023/03/08 11:06:10;;;;;;;6.85;3.25;;;5.40;99.90;;;;;;5065381;28;20052;-62
2023/03/08 11:08:38;;;;;;;6.57;3.00;;;5.20;99.90;;;;;;5080666;28;20033;-62
2023/03/08 11:11:07;;;;;;;10.88;4.10;;;5.20;99.90;;;;;;5071764;28;20070;-62
2023/03/08 11:13:40;;;;;;;8.43;4.32;;;5.00;99.90;;;;;;5084351;28;20119;-62
2023/03/08 11:16:33;;;;;;;9.48;5.32;;;5.00;99.90;;;;;;5080160;28;22533;-62
2023/03/08 11:19:05;;;;;;;9.07;5.28;;;5.00;99.90;;;;;;5082925;28;20071;-61
2023/03/08 11:21:45;;;;;;;9.43;4.90;;;5.00;99.90;;;;;;5067037;28;20116;-61
2023/03/08 11:24:23;;;;;;;13.40;7.05;;;5.00;99.90;;;;;;5082864;28;20056;-61
2023/03/08 11:27:03;;;;;;;12.63;6.13;;;5.00;99.90;;;;;;5078666;28;20098;-61
2023/03/08 11:29:46;;;;;;;10.10;6.18;;;4.90;99.90;;;;;;5073662;28;20055;-60
2023/03/08 11:32:42;;;;;;;9.68;5.22;;;4.90;99.90;;;;;;5079323;28;20100;-61
2023/03/08 11:35:37;;;;;;;9.48;4.55;;;5.00;99.90;;;;;;5081507;28;20119;-62
2023/03/08 11:38:18;;;;;;;9.27;4.15;;;5.00;99.90;;;;;;5053295;28;20040;-61
2023/03/08 11:41:13;;;;;;;9.40;3.55;;;5.00;99.90;;;;;;5073289;28;20047;-62
2023/03/08 11:44:35;;;;;;;9.43;4.13;;;5.00;99.90;;;;;;5065566;28;20101;-61
2023/03/08 11:47:28;;;;;;;10.00;3.97;;;4.90;99.90;;;;;;5023021;28;20049;-61
2023/03/08 11:50:04;;;;;;;9.82;4.30;;;4.80;99.90;;;;;;5022738;28;20041;-61
2023/03/08 11:52:49;;;;;;;10.15;4.50;;;4.70;99.90;;;;;;5054176;28;20812;-61
2023/03/08 11:55:53;;;;;;;8.07;3.47;;;4.80;99.90;;;;;;5062923;28;20483;-62
2023/03/08 11:58:47;;;;;;;8.70;3.60;;;4.80;99.50;;;;;;5063331;28;20061;-61
2023/03/08 12:01:24;;;;;;;9.48;4.65;;;4.60;99.60;;;;;;5061336;28;20049;-61
2023/03/08 12:03:54;;;;;;;8.93;3.72;;;4.70;99.90;;;;;;5069572;28;20850;-62
2023/03/08 12:06:28;;;;;;;11.30;4.20;;;4.80;99.90;;;;;;5084650;28;20577;-62
2023/03/08 12:08:53;;;;;;;11.02;4.53;;;4.90;99.90;;;;;;5076459;28;20043;-61
2023/03/08 12:11:19;;;;;;;9.25;2.85;;;4.90;99.90;;;;;;5071657;28;20052;-61
2023/03/08 12:13:49;;;;;;;9.40;3.58;;;4.90;99.90;;;;;;5064242;28;20055;-61
2023/03/08 12:16:37;;;;;;;9.60;3.20;;;4.90;99.90;;;;;;5066225;28;20040;-61
2023/03/08 12:19:43;;;;;;;10.20;2.95;;;5.00;99.90;;;;;;5082591;28;20754;-62
2023/03/08 12:22:34;;;;;;;7.43;1.85;;;5.10;99.90;;;;;;5064770;28;20090;-61
2023/03/08 12:25:24;;;;;;;11.88;4.32;;;5.10;99.90;;;;;;5063523;28;20043;-61
2023/03/08 12:28:01;;;;;;;11.70;6.30;;;5.30;99.90;;;;;;5082475;28;20109;-62
2023/03/08 12:30:35;;;;;;;11.77;5.28;;;5.40;99.90;;;;;;5069577;28;20051;-62
2023/03/08 12:33:02;;;;;;;;;;;5.50;99.90;;;;;;5063862;28;20079;-62
2023/03/08 12:35:36;;;;;;;9.90;3.38;;;5.40;98.90;;;;;;5062995;28;19978;-62
2023/03/08 12:38:18;;;;;;;7.93;3.88;;;5.40;99.90;;;;;;5065729;28;20859;-62
2023/03/08 12:40:49;;;;;;;7.13;2.58;;;5.40;99.90;;;;;;5078370;28;20135;-61
2023/03/08 12:43:21;;;;;;;8.52;2.55;;;5.30;99.30;;;;;;5082549;28;20063;-62
2023/03/08 12:45:59;;;;;;;5.78;2.25;;;5.30;99.60;;;;;;5077337;28;20036;-62
2023/03/08 12:48:29;;;;;;;7.57;2.55;;;5.20;98.80;;;;;;5066274;28;20040;-62
2023/03/08 12:51:03;;;;;;;8.50;2.47;;;5.40;99.80;;;;;;5080672;28;20032;-62
2023/03/08 12:53:43;;;;;;;6.63;2.40;;;5.40;99.30;;;;;;5084227;28;20039;-62
2023/03/08 12:56:09;;;;;;;6.55;2.00;;;5.50;98.00;;;;;;5064193;28;20201;-62
2023/03/08 12:58:54;;;;;;;5.10;1.90;;;5.30;99.10;;;;;;5073501;28;20567;-61